DBLDN92 -KNYG
Flight info
| Callsign | DBLDN92 |
|---|---|
| Flight time | N/A |
| Altitude | VFR/015 |
| Route | VFR ROUTE 1 N FF |
| Aircraft | S92/M-DOV/C |
Departure
| Time | N/A |
|---|---|
| Airport | - |
Arrival
| Time | 2026-05-06 22:42 |
|---|---|
| Airport | Quantico Marine Corps Airfield / Turner Field (KNYG) |
| Time | Latitude | Longitude | Altitude | Speed | Heading |
|---|---|---|---|---|---|
| 2026-05-06 21:34 | 38.83496 | -76.90012 | 385 ft | 92 kts | 217° |
| 2026-05-06 21:35 | 38.83224 | -76.90750 | 343 ft | 90 kts | 239° |
| 2026-05-06 21:35 | 38.83044 | -76.91444 | 447 ft | 77 kts | 254° |
| 2026-05-06 21:35 | 38.83416 | -76.91906 | 380 ft | 84 kts | 321° |
| 2026-05-06 21:35 | 38.83838 | -76.92256 | 378 ft | 59 kts | 301° |
| 2026-05-06 21:36 | 38.84145 | -76.92606 | 438 ft | 67 kts | 293° |
| 2026-05-06 21:36 | 38.84594 | -76.93017 | 430 ft | 89 kts | 309° |
| 2026-05-06 21:36 | 38.85078 | -76.93491 | 543 ft | 89 kts | 296° |
| 2026-05-06 21:36 | 38.85603 | -76.94137 | 530 ft | 114 kts | 303° |
| 2026-05-06 21:37 | 38.86183 | -76.94841 | 541 ft | 115 kts | 304° |
| 2026-05-06 21:37 | 38.86759 | -76.95639 | 334 ft | 123 kts | 301° |
| 2026-05-06 21:37 | 38.87246 | -76.96506 | 233 ft | 112 kts | 280° |
| 2026-05-06 21:37 | 38.87445 | -76.97431 | 133 ft | 104 kts | 270° |
| 2026-05-06 21:38 | 38.87440 | -76.98291 | 58 ft | 85 kts | 237° |
| 2026-05-06 21:38 | 38.87238 | -76.98923 | 92 ft | 73 kts | 233° |
| 2026-05-06 21:38 | 38.87129 | -76.99536 | 132 ft | 76 kts | 254° |
| 2026-05-06 21:38 | 38.87045 | -77.00216 | 189 ft | 82 kts | 216° |
| 2026-05-06 21:39 | 38.86587 | -77.00684 | 221 ft | 87 kts | 208° |
| 2026-05-06 21:39 | 38.86098 | -77.01282 | 148 ft | 102 kts | 222° |
| 2026-05-06 21:39 | 38.85750 | -77.02032 | 110 ft | 93 kts | 249° |
| 2026-05-06 21:39 | 38.86195 | -77.02483 | 115 ft | 92 kts | 1° |
| 2026-05-06 21:40 | 38.86710 | -77.02178 | 107 ft | 75 kts | 357° |
| 2026-05-06 21:40 | 38.87146 | -77.02213 | 69 ft | 46 kts | 326° |
| 2026-05-06 21:40 | 38.87429 | -77.02353 | 115 ft | 47 kts | 309° |
| 2026-05-06 21:40 | 38.87763 | -77.02617 | 113 ft | 69 kts | 302° |
| 2026-05-06 21:41 | 38.88134 | -77.03069 | 107 ft | 76 kts | 294° |
| 2026-05-06 21:41 | 38.88447 | -77.03562 | 154 ft | 66 kts | 285° |
| 2026-05-06 21:41 | 38.88633 | -77.04009 | 175 ft | 51 kts | 256° |
| 2026-05-06 21:41 | 38.88652 | -77.04463 | 218 ft | 64 kts | 238° |
| 2026-05-06 21:42 | 38.88892 | -77.05152 | 276 ft | 103 kts | 290° |
| 2026-05-06 21:42 | 38.89477 | -77.05803 | 288 ft | 118 kts | 325° |
| 2026-05-06 21:42 | 38.90176 | -77.06289 | 227 ft | 102 kts | 288° |
| 2026-05-06 21:42 | 38.90299 | -77.07157 | 177 ft | 97 kts | 260° |
| 2026-05-06 21:43 | 38.90395 | -77.08024 | 140 ft | 103 kts | 263° |
| 2026-05-06 21:43 | 38.90678 | -77.08901 | 255 ft | 116 kts | 282° |
| 2026-05-06 21:43 | 38.91087 | -77.09807 | 268 ft | 120 kts | 293° |
| 2026-05-06 21:43 | 38.91730 | -77.10451 | 407 ft | 113 kts | 317° |
| 2026-05-06 21:44 | 38.92458 | -77.10940 | 369 ft | 121 kts | 322° |
| 2026-05-06 21:44 | 38.93137 | -77.11464 | 415 ft | 115 kts | 314° |
| 2026-05-06 21:44 | 38.93833 | -77.12102 | 286 ft | 124 kts | 316° |
| 2026-05-06 21:44 | 38.94523 | -77.12721 | 344 ft | 118 kts | 315° |
| 2026-05-06 21:45 | 38.95179 | -77.13326 | 312 ft | 113 kts | 315° |
| 2026-05-06 21:45 | 38.95789 | -77.13879 | 344 ft | 100 kts | 309° |
| 2026-05-06 21:45 | 38.96315 | -77.14335 | 536 ft | 82 kts | 307° |
| 2026-05-06 21:45 | 38.96694 | -77.14883 | 494 ft | 85 kts | 282° |
| 2026-05-06 21:46 | 38.96914 | -77.15604 | 347 ft | 93 kts | 269° |
| 2026-05-06 21:46 | 38.96973 | -77.16469 | 166 ft | 96 kts | 260° |
| 2026-05-06 21:46 | 38.97007 | -77.17252 | 274 ft | 78 kts | 256° |
| 2026-05-06 21:46 | 38.97082 | -77.17836 | 497 ft | 58 kts | 258° |
| 2026-05-06 21:47 | 38.97175 | -77.18309 | 350 ft | 49 kts | 261° |
| 2026-05-06 21:47 | 38.97191 | -77.18491 | 213 ft | 32 kts | 133° |
| 2026-05-06 21:47 | 38.97185 | -77.18449 | 212 ft | 7 kts | 103° |
| 2026-05-06 21:47 | 38.97209 | -77.18378 | 323 ft | 10 kts | 89° |
| 2026-05-06 21:48 | 38.97147 | -77.18155 | 376 ft | 53 kts | 98° |
| 2026-05-06 21:48 | 38.96931 | -77.17609 | 542 ft | 82 kts | 110° |
| 2026-05-06 21:48 | 38.96854 | -77.16796 | 615 ft | 101 kts | 96° |
| 2026-05-06 21:48 | 38.96874 | -77.15864 | 598 ft | 105 kts | 88° |
| 2026-05-06 21:49 | 38.96920 | -77.14941 | 433 ft | 98 kts | 109° |
| 2026-05-06 21:49 | 38.96587 | -77.14364 | 231 ft | 69 kts | 158° |
| 2026-05-06 21:49 | 38.96254 | -77.14168 | 216 ft | 36 kts | 154° |
| 2026-05-06 21:49 | 38.96017 | -77.13951 | 213 ft | 64 kts | 148° |
| 2026-05-06 21:50 | 38.95561 | -77.13586 | 116 ft | 85 kts | 144° |
| 2026-05-06 21:50 | 38.95056 | -77.13160 | 115 ft | 86 kts | 150° |
| 2026-05-06 21:50 | 38.94528 | -77.12869 | 201 ft | 78 kts | 160° |
| 2026-05-06 21:50 | 38.94030 | -77.12707 | 339 ft | 74 kts | 158° |
| 2026-05-06 21:51 | 38.93614 | -77.12308 | 527 ft | 79 kts | 134° |
| 2026-05-06 21:51 | 38.93101 | -77.11792 | 409 ft | 109 kts | 142° |
| 2026-05-06 21:51 | 38.92443 | -77.11169 | 289 ft | 120 kts | 143° |
| 2026-05-06 21:51 | 38.91883 | -77.10673 | 333 ft | 74 kts | 148° |
| 2026-05-06 21:52 | 38.91563 | -77.10430 | 384 ft | 34 kts | 143° |
| 2026-05-06 21:52 | 38.91528 | -77.10281 | 44 ft | 9 kts | 67° |
| 2026-05-06 21:52 | 38.91498 | -77.10368 | 189 ft | 22 kts | 53° |
| 2026-05-06 21:52 | 38.91482 | -77.10353 | 5 ft | 376 kts | 359° |
| 2026-05-06 21:53 | 38.91465 | -77.10211 | 256 ft | 29 kts | 118° |
| 2026-05-06 21:53 | 38.91146 | -77.10017 | 156 ft | 63 kts | 144° |
| 2026-05-06 21:53 | 38.90818 | -77.09529 | 56 ft | 84 kts | 130° |
| 2026-05-06 21:53 | 38.90520 | -77.08937 | 179 ft | 68 kts | 118° |
| 2026-05-06 21:54 | 38.90404 | -77.08444 | 349 ft | 50 kts | 107° |
| 2026-05-06 21:54 | 38.90338 | -77.07982 | 351 ft | 55 kts | 102° |
| 2026-05-06 21:54 | 38.90325 | -77.07490 | 380 ft | 57 kts | 92° |
| 2026-05-06 21:54 | 38.90229 | -77.06918 | 305 ft | 78 kts | 109° |
| 2026-05-06 21:55 | 38.90045 | -77.06187 | 259 ft | 82 kts | 109° |
| 2026-05-06 21:55 | 38.89954 | -77.05491 | 309 ft | 79 kts | 99° |
| 2026-05-06 21:55 | 38.89886 | -77.04783 | 312 ft | 82 kts | 98° |
| 2026-05-06 21:55 | 38.89695 | -77.04137 | 322 ft | 69 kts | 96° |
| 2026-05-06 21:56 | 38.89668 | -77.03837 | 92 ft | 10 kts | 280° |
| 2026-05-06 21:56 | 38.89645 | -77.03687 | 82 ft | 8 kts | 31° |
| 2026-05-06 21:56 | 38.89701 | -77.03663 | 60 ft | 2 kts | 50° |
| 2026-05-06 21:56 | 38.89700 | -77.03660 | 60 ft | 0 kts | 239° |
| 2026-05-06 22:23 | 38.89725 | -77.03757 | 174 ft | 44 kts | 249° |
| 2026-05-06 22:23 | 38.89753 | -77.04378 | 311 ft | 87 kts | 239° |
| 2026-05-06 22:23 | 38.89819 | -77.05008 | 562 ft | 65 kts | 263° |
| 2026-05-06 22:23 | 38.89984 | -77.05494 | 552 ft | 61 kts | 263° |
| 2026-05-06 22:24 | 38.90121 | -77.06247 | 381 ft | 95 kts | 263° |
| 2026-05-06 22:24 | 38.90225 | -77.07097 | 393 ft | 93 kts | 261° |
| 2026-05-06 22:24 | 38.90306 | -77.07876 | 522 ft | 82 kts | 263° |
| 2026-05-06 22:24 | 38.90489 | -77.08565 | 591 ft | 85 kts | 283° |
| 2026-05-06 22:25 | 38.90857 | -77.09248 | 272 ft | 96 kts | 296° |
| 2026-05-06 22:25 | 38.91243 | -77.09896 | 182 ft | 85 kts | 301° |
| 2026-05-06 22:25 | 38.91643 | -77.10403 | 450 ft | 85 kts | 297° |
| 2026-05-06 22:25 | 38.92238 | -77.10842 | 622 ft | 111 kts | 312° |
| 2026-05-06 22:26 | 38.92960 | -77.11377 | 543 ft | 127 kts | 317° |
| 2026-05-06 22:26 | 38.93720 | -77.11989 | 374 ft | 129 kts | 312° |
| 2026-05-06 22:26 | 38.94433 | -77.12628 | 421 ft | 112 kts | 311° |
| 2026-05-06 22:26 | 38.95076 | -77.13213 | 527 ft | 116 kts | 313° |
| 2026-05-06 22:27 | 38.95764 | -77.13800 | 580 ft | 117 kts | 313° |
| 2026-05-06 22:27 | 38.96339 | -77.14446 | 611 ft | 104 kts | 294° |
| 2026-05-06 22:27 | 38.96664 | -77.15314 | 469 ft | 109 kts | 277° |
| 2026-05-06 22:27 | 38.96905 | -77.16244 | 404 ft | 108 kts | 274° |
| 2026-05-06 22:28 | 38.97033 | -77.17137 | 506 ft | 99 kts | 257° |
| 2026-05-06 22:28 | 38.96916 | -77.17943 | 589 ft | 85 kts | 219° |
| 2026-05-06 22:28 | 38.96433 | -77.18406 | 763 ft | 79 kts | 213° |
| 2026-05-06 22:28 | 38.95995 | -77.18854 | 891 ft | 85 kts | 211° |
| 2026-05-06 22:29 | 38.95514 | -77.19336 | 914 ft | 86 kts | 215° |
| 2026-05-06 22:29 | 38.94996 | -77.19818 | 799 ft | 102 kts | 209° |
| 2026-05-06 22:29 | 38.94436 | -77.20261 | 839 ft | 85 kts | 207° |
| 2026-05-06 22:29 | 38.93955 | -77.20607 | 797 ft | 72 kts | 206° |
| 2026-05-06 22:30 | 38.93547 | -77.20867 | 862 ft | 70 kts | 199° |
| 2026-05-06 22:30 | 38.92976 | -77.21205 | 720 ft | 103 kts | 207° |
| 2026-05-06 22:30 | 38.92333 | -77.21506 | 716 ft | 99 kts | 188° |
| 2026-05-06 22:30 | 38.91670 | -77.21654 | 747 ft | 98 kts | 184° |
| 2026-05-06 22:31 | 38.90963 | -77.21760 | 692 ft | 104 kts | 178° |
| 2026-05-06 22:31 | 38.90252 | -77.21582 | 646 ft | 105 kts | 163° |
| 2026-05-06 22:31 | 38.89533 | -77.21572 | 587 ft | 104 kts | 193° |
| 2026-05-06 22:31 | 38.88893 | -77.22003 | 627 ft | 103 kts | 205° |
| 2026-05-06 22:32 | 38.88258 | -77.22410 | 639 ft | 100 kts | 187° |
| 2026-05-06 22:32 | 38.87573 | -77.22465 | 655 ft | 101 kts | 182° |
| 2026-05-06 22:32 | 38.86870 | -77.22474 | 688 ft | 99 kts | 175° |
| 2026-05-06 22:32 | 38.86150 | -77.22440 | 649 ft | 103 kts | 175° |
| 2026-05-06 22:33 | 38.85452 | -77.22416 | 729 ft | 96 kts | 177° |
| 2026-05-06 22:33 | 38.84797 | -77.22389 | 760 ft | 101 kts | 171° |
| 2026-05-06 22:33 | 38.84043 | -77.22275 | 630 ft | 112 kts | 171° |
| 2026-05-06 22:33 | 38.83251 | -77.22179 | 430 ft | 112 kts | 176° |
| 2026-05-06 22:34 | 38.82513 | -77.22281 | 399 ft | 104 kts | 183° |
| 2026-05-06 22:34 | 38.81825 | -77.22178 | 371 ft | 99 kts | 161° |
| 2026-05-06 22:34 | 38.81208 | -77.21874 | 371 ft | 92 kts | 148° |
| 2026-05-06 22:34 | 38.80683 | -77.21453 | 410 ft | 85 kts | 142° |
| 2026-05-06 22:35 | 38.80192 | -77.21006 | 415 ft | 85 kts | 137° |
| 2026-05-06 22:35 | 38.79899 | -77.20342 | 405 ft | 89 kts | 107° |
| 2026-05-06 22:35 | 38.79764 | -77.19577 | 419 ft | 86 kts | 110° |
| 2026-05-06 22:35 | 38.79424 | -77.18975 | 421 ft | 79 kts | 148° |
| 2026-05-06 22:36 | 38.78897 | -77.18880 | 440 ft | 77 kts | 169° |
| 2026-05-06 22:36 | 38.78326 | -77.18734 | 366 ft | 89 kts | 160° |
| 2026-05-06 22:36 | 38.77737 | -77.18527 | 393 ft | 81 kts | 159° |
| 2026-05-06 22:36 | 38.77221 | -77.18376 | 554 ft | 66 kts | 154° |
| 2026-05-06 22:37 | 38.76710 | -77.18262 | 894 ft | 92 kts | 175° |
| 2026-05-06 22:37 | 38.76040 | -77.18487 | 842 ft | 105 kts | 189° |
| 2026-05-06 22:37 | 38.75342 | -77.18702 | 834 ft | 95 kts | 189° |
| 2026-05-06 22:37 | 38.74670 | -77.18868 | 692 ft | 103 kts | 187° |
| 2026-05-06 22:38 | 38.73959 | -77.19114 | 508 ft | 107 kts | 198° |
| 2026-05-06 22:38 | 38.73312 | -77.19638 | 363 ft | 111 kts | 213° |
| 2026-05-06 22:38 | 38.72742 | -77.20267 | 381 ft | 103 kts | 211° |
| 2026-05-06 22:38 | 38.72151 | -77.20886 | 277 ft | 114 kts | 217° |
| 2026-05-06 22:39 | 38.71594 | -77.21578 | 241 ft | 108 kts | 215° |
| 2026-05-06 22:39 | 38.71033 | -77.22120 | 292 ft | 89 kts | 199° |
| 2026-05-06 22:39 | 38.70470 | -77.22284 | 463 ft | 91 kts | 176° |
| 2026-05-06 22:39 | 38.69763 | -77.22383 | 507 ft | 109 kts | 182° |
| 2026-05-06 22:40 | 38.68996 | -77.22548 | 421 ft | 113 kts | 184° |
| 2026-05-06 22:40 | 38.68200 | -77.22718 | 301 ft | 117 kts | 183° |
| 2026-05-06 22:40 | 38.67432 | -77.22943 | 289 ft | 107 kts | 180° |
| 2026-05-06 22:40 | 38.66878 | -77.23463 | 339 ft | 106 kts | 222° |
| 2026-05-06 22:41 | 38.65878 | -77.24877 | 225 ft | 103 kts | 202° |
| 2026-05-06 22:41 | 38.65288 | -77.25136 | 282 ft | 79 kts | 188° |
| 2026-05-06 22:41 | 38.64794 | -77.25265 | 264 ft | 66 kts | 185° |
| 2026-05-06 22:42 | 38.64391 | -77.25343 | 285 ft | 48 kts | 171° |
| 2026-05-06 22:42 | 38.64238 | -77.24949 | 303 ft | 68 kts | 96° |
| 2026-05-06 22:42 | 38.64105 | -77.24269 | 202 ft | 91 kts | 102° |
| 2026-05-06 22:42 | 38.63900 | -77.23480 | 286 ft | 91 kts | 107° |
| 2026-05-06 22:43 | 38.63677 | -77.22716 | 364 ft | 98 kts | 107° |
| 2026-05-06 22:43 | 38.63420 | -77.21823 | 264 ft | 115 kts | 108° |
| 2026-05-06 22:43 | 38.63187 | -77.20859 | 306 ft | 114 kts | 104° |
| 2026-05-06 22:43 | 38.62938 | -77.19887 | 316 ft | 113 kts | 108° |
| 2026-05-06 22:44 | 38.62718 | -77.18974 | 534 ft | 104 kts | 104° |
| 2026-05-06 22:44 | 38.62534 | -77.18040 | 721 ft | 108 kts | 107° |
| 2026-05-06 22:44 | 38.62350 | -77.17094 | 843 ft | 113 kts | 102° |
| 2026-05-06 22:44 | 38.62163 | -77.16099 | 835 ft | 113 kts | 105° |
| 2026-05-06 22:45 | 38.61986 | -77.15118 | 646 ft | 121 kts | 108° |
| 2026-05-06 22:45 | 38.61781 | -77.14029 | 491 ft | 120 kts | 103° |
| 2026-05-06 22:45 | 38.61740 | -77.13032 | 546 ft | 105 kts | 87° |
| 2026-05-06 22:45 | 38.61765 | -77.12169 | 647 ft | 90 kts | 88° |
| 2026-05-06 22:46 | 38.61815 | -77.11407 | 741 ft | 85 kts | 81° |
| 2026-05-06 22:46 | 38.61909 | -77.10617 | 698 ft | 96 kts | 82° |
| 2026-05-06 22:46 | 38.62012 | -77.09767 | 674 ft | 94 kts | 88° |
| 2026-05-06 22:46 | 38.62142 | -77.08936 | 654 ft | 101 kts | 71° |
| 2026-05-06 22:47 | 38.62358 | -77.08041 | 554 ft | 109 kts | 82° |
| 2026-05-06 22:47 | 38.62359 | -77.07107 | 548 ft | 102 kts | 105° |
| 2026-05-06 22:47 | 38.62107 | -77.06227 | 406 ft | 104 kts | 116° |
| 2026-05-06 22:47 | 38.61866 | -77.05385 | 420 ft | 99 kts | 102° |
| 2026-05-06 22:48 | 38.61863 | -77.04518 | 408 ft | 97 kts | 88° |
| 2026-05-06 22:48 | 38.61877 | -77.03666 | 452 ft | 95 kts | 91° |
| 2026-05-06 22:48 | 38.61870 | -77.02848 | 462 ft | 88 kts | 90° |
| 2026-05-06 22:48 | 38.61801 | -77.02102 | 789 ft | 79 kts | 92° |
| 2026-05-06 22:49 | 38.61723 | -77.01291 | 1025 ft | 105 kts | 94° |
| 2026-05-06 22:49 | 38.61665 | -77.00289 | 1169 ft | 118 kts | 92° |
| 2026-05-06 22:49 | 38.61689 | -76.99212 | 1186 ft | 132 kts | 89° |
| 2026-05-06 22:49 | 38.61760 | -76.98022 | 1015 ft | 138 kts | 86° |
| 2026-05-06 22:50 | 38.61879 | -76.96815 | 944 ft | 135 kts | 77° |
| 2026-05-06 22:50 | 38.62043 | -76.95633 | 850 ft | 127 kts | 91° |
| 2026-05-06 22:50 | 38.61984 | -76.94552 | 647 ft | 127 kts | 95° |
| 2026-05-06 22:50 | 38.61948 | -76.93393 | 361 ft | 129 kts | 91° |
| 2026-05-06 22:51 | 38.62047 | -76.92460 | 660 ft | 110 kts | 66° |
| 2026-05-06 22:51 | 38.62391 | -76.91591 | 798 ft | 121 kts | 45° |
| 2026-05-06 22:51 | 38.62781 | -76.91061 | 707 ft | 123 kts | 41° |
| 2026-05-06 22:51 | 38.63441 | -76.90356 | 642 ft | 124 kts | 32° |
| 2026-05-06 22:52 | 38.64113 | -76.89698 | 699 ft | 117 kts | 30° |
| 2026-05-06 22:52 | 38.64700 | -76.88922 | 646 ft | 130 kts | 48° |
| 2026-05-06 22:52 | 38.65292 | -76.88076 | 699 ft | 129 kts | 33° |
| 2026-05-06 22:52 | 38.66145 | -76.87660 | 711 ft | 126 kts | 5° |
| 2026-05-06 22:53 | 38.67043 | -76.87498 | 464 ft | 127 kts | 0° |
| 2026-05-06 22:53 | 38.67888 | -76.87370 | 375 ft | 119 kts | 3° |
| 2026-05-06 22:53 | 38.68682 | -76.87220 | 310 ft | 110 kts | 357° |
| 2026-05-06 22:53 | 38.69382 | -76.87216 | 514 ft | 89 kts | 336° |
| 2026-05-06 22:54 | 38.70078 | -76.87494 | 592 ft | 115 kts | 320° |
| 2026-05-06 22:54 | 38.70808 | -76.88021 | 555 ft | 121 kts | 320° |
| 2026-05-06 22:54 | 38.71505 | -76.88631 | 463 ft | 125 kts | 309° |
| 2026-05-06 22:54 | 38.72205 | -76.89240 | 421 ft | 119 kts | 333° |
| 2026-05-06 22:55 | 38.73026 | -76.89451 | 358 ft | 121 kts | 344° |
| 2026-05-06 22:55 | 38.73849 | -76.89562 | 463 ft | 119 kts | 352° |
| 2026-05-06 22:55 | 38.74672 | -76.89442 | 436 ft | 119 kts | 358° |
| 2026-05-06 22:55 | 38.75482 | -76.89490 | 453 ft | 114 kts | 345° |
| 2026-05-06 22:56 | 38.76214 | -76.89670 | 577 ft | 99 kts | 334° |
| 2026-05-06 22:56 | 38.76869 | -76.89864 | 628 ft | 108 kts | 347° |
| 2026-05-06 22:56 | 38.77726 | -76.89814 | 506 ft | 134 kts | 357° |
| 2026-05-06 22:56 | 38.78653 | -76.89748 | 400 ft | 137 kts | 354° |
| 2026-05-06 22:57 | 38.79502 | -76.89953 | 474 ft | 123 kts | 326° |
| 2026-05-06 22:57 | 38.80299 | -76.90453 | 376 ft | 125 kts | 319° |
| 2026-05-06 22:57 | 38.81024 | -76.90962 | 352 ft | 114 kts | 323° |
| 2026-05-06 22:57 | 38.81573 | -76.91451 | 395 ft | 82 kts | 298° |
| 2026-05-06 22:58 | 38.81956 | -76.91865 | 417 ft | 70 kts | 293° |
| 2026-05-06 22:58 | 38.82336 | -76.92318 | 585 ft | 78 kts | 291° |
| 2026-05-06 22:58 | 38.82772 | -76.92977 | 417 ft | 112 kts | 297° |
| 2026-05-06 22:58 | 38.83251 | -76.93815 | 338 ft | 118 kts | 289° |
| 2026-05-06 22:59 | 38.83813 | -76.94533 | 355 ft | 118 kts | 319° |
| 2026-05-06 22:59 | 38.84491 | -76.95086 | 360 ft | 113 kts | 314° |
| 2026-05-06 22:59 | 38.85205 | -76.95534 | 391 ft | 113 kts | 322° |
| 2026-05-06 22:59 | 38.85926 | -76.95867 | 465 ft | 106 kts | 330° |
| 2026-05-06 23:00 | 38.86659 | -76.96064 | 503 ft | 112 kts | 337° |
| 2026-05-06 23:00 | 38.87357 | -76.96539 | 308 ft | 117 kts | 289° |
| 2026-05-06 23:00 | 38.87559 | -76.97543 | 111 ft | 113 kts | 263° |
| 2026-05-06 23:00 | 38.87446 | -76.98482 | 102 ft | 100 kts | 235° |
| 2026-05-06 23:01 | 38.87185 | -76.99245 | 168 ft | 89 kts | 241° |
| 2026-05-06 23:01 | 38.87097 | -77.00025 | 187 ft | 83 kts | 244° |
| 2026-05-06 23:01 | 38.86913 | -77.00663 | 224 ft | 72 kts | 220° |
| 2026-05-06 23:01 | 38.86508 | -77.00994 | 213 ft | 56 kts | 160° |
| 2026-05-06 23:02 | 38.86675 | -77.00675 | 223 ft | 52 kts | 17° |
| 2026-05-06 23:02 | 38.86813 | -77.00770 | 133 ft | 28 kts | 190° |
| 2026-05-06 23:02 | 38.86874 | -77.00678 | 158 ft | 22 kts | 152° |
| 2026-05-06 23:02 | 38.86884 | -77.00618 | 291 ft | 30 kts | 157° |
| 2026-05-06 23:03 | 38.86607 | -77.00382 | 297 ft | 66 kts | 121° |
| 2026-05-06 23:03 | 38.86511 | -76.99694 | 310 ft | 87 kts | 82° |
| 2026-05-06 23:03 | 38.86871 | -76.99079 | 304 ft | 89 kts | 17° |
| 2026-05-06 23:03 | 38.87264 | -76.99305 | 388 ft | 63 kts | 259° |
| 2026-05-06 23:04 | 38.86963 | -76.99592 | 286 ft | 60 kts | 161° |
| 2026-05-06 23:04 | 38.86944 | -76.99319 | 351 ft | 50 kts | 354° |
| 2026-05-06 23:04 | 38.87192 | -76.99624 | 335 ft | 56 kts | 260° |
| 2026-05-06 23:04 | 38.86981 | -76.99937 | 387 ft | 45 kts | 181° |
| 2026-05-06 23:05 | 38.86951 | -76.99704 | 390 ft | 51 kts | 14° |
| 2026-05-06 23:05 | 38.87255 | -77.00028 | 308 ft | 66 kts | 285° |
| 2026-05-06 23:05 | 38.87430 | -77.00450 | 540 ft | 42 kts | 270° |
| 2026-05-06 23:05 | 38.87594 | -77.00738 | 688 ft | 36 kts | 278° |
| 2026-05-06 23:06 | 38.87649 | -77.00901 | 805 ft | 14 kts | 251° |
| 2026-05-06 23:06 | 38.87496 | -77.01291 | 620 ft | 74 kts | 228° |
| 2026-05-06 23:06 | 38.87538 | -77.02139 | 217 ft | 123 kts | 287° |
| 2026-05-06 23:06 | 38.88034 | -77.02985 | 187 ft | 110 kts | 305° |
| 2026-05-06 23:07 | 38.88369 | -77.03760 | 167 ft | 93 kts | 264° |
| 2026-05-06 23:07 | 38.88393 | -77.04543 | 168 ft | 89 kts | 267° |
| 2026-05-06 23:07 | 38.88687 | -77.05241 | 139 ft | 92 kts | 306° |
| 2026-05-06 23:07 | 38.89266 | -77.05621 | 126 ft | 93 kts | 331° |
| 2026-05-06 23:08 | 38.89847 | -77.05910 | 151 ft | 85 kts | 316° |
| 2026-05-06 23:08 | 38.90187 | -77.06480 | 107 ft | 85 kts | 282° |
| 2026-05-06 23:08 | 38.90421 | -77.07097 | 219 ft | 58 kts | 274° |
| 2026-05-06 23:08 | 38.90435 | -77.07542 | 405 ft | 61 kts | 237° |
| 2026-05-06 23:09 | 38.90497 | -77.08351 | 259 ft | 109 kts | 274° |
| 2026-05-06 23:09 | 38.90854 | -77.09075 | 532 ft | 97 kts | 296° |
| 2026-05-06 23:09 | 38.91344 | -77.09734 | 484 ft | 107 kts | 307° |
| 2026-05-06 23:09 | 38.91915 | -77.10388 | 500 ft | 110 kts | 313° |
| 2026-05-06 23:10 | 38.92521 | -77.10965 | 624 ft | 105 kts | 313° |
| 2026-05-06 23:10 | 38.93144 | -77.11465 | 703 ft | 113 kts | 317° |
| 2026-05-06 23:10 | 38.93846 | -77.11999 | 775 ft | 119 kts | 317° |
| 2026-05-06 23:10 | 38.94568 | -77.12517 | 834 ft | 118 kts | 319° |
| 2026-05-06 23:11 | 38.95256 | -77.13044 | 914 ft | 115 kts | 312° |
| 2026-05-06 23:11 | 38.95860 | -77.13717 | 842 ft | 119 kts | 307° |
| 2026-05-06 23:11 | 38.96408 | -77.14507 | 747 ft | 118 kts | 294° |
| 2026-05-06 23:11 | 38.96790 | -77.15435 | 559 ft | 116 kts | 283° |
| 2026-05-06 23:12 | 38.97004 | -77.16369 | 538 ft | 101 kts | 271° |
| 2026-05-06 23:12 | 38.97044 | -77.17171 | 729 ft | 79 kts | 253° |
| 2026-05-06 23:12 | 38.96897 | -77.17824 | 837 ft | 74 kts | 235° |
| 2026-05-06 23:12 | 38.96612 | -77.18396 | 845 ft | 81 kts | 222° |
| 2026-05-06 23:13 | 38.96149 | -77.18889 | 775 ft | 92 kts | 207° |
| 2026-05-06 23:13 | 38.95535 | -77.19117 | 775 ft | 95 kts | 189° |
| 2026-05-06 23:13 | 38.94871 | -77.19281 | 642 ft | 95 kts | 188° |
| 2026-05-06 23:13 | 38.94265 | -77.19428 | 669 ft | 83 kts | 184° |
| 2026-05-06 23:14 | 38.93740 | -77.19517 | 783 ft | 71 kts | 178° |
| 2026-05-06 23:14 | 38.93246 | -77.19712 | 718 ft | 78 kts | 189° |
| 2026-05-06 23:14 | 38.92609 | -77.19925 | 661 ft | 106 kts | 189° |
| 2026-05-06 23:14 | 38.91931 | -77.20155 | 764 ft | 97 kts | 190° |
| 2026-05-06 23:15 | 38.91264 | -77.20367 | 776 ft | 98 kts | 189° |
| 2026-05-06 23:15 | 38.90625 | -77.20560 | 863 ft | 89 kts | 190° |
| 2026-05-06 23:15 | 38.90079 | -77.20740 | 987 ft | 72 kts | 196° |
| 2026-05-06 23:15 | 38.89647 | -77.20908 | 1049 ft | 63 kts | 197° |
| 2026-05-06 23:16 | 38.89218 | -77.21084 | 1010 ft | 70 kts | 190° |
| 2026-05-06 23:16 | 38.88718 | -77.21264 | 979 ft | 79 kts | 190° |
| 2026-05-06 23:16 | 38.88140 | -77.21434 | 942 ft | 91 kts | 187° |
| 2026-05-06 23:16 | 38.87497 | -77.21597 | 931 ft | 96 kts | 187° |
| 2026-05-06 23:17 | 38.86849 | -77.21741 | 973 ft | 92 kts | 189° |
| 2026-05-06 23:17 | 38.86210 | -77.21840 | 977 ft | 92 kts | 187° |
| 2026-05-06 23:17 | 38.85593 | -77.21872 | 1022 ft | 85 kts | 184° |
| 2026-05-06 23:17 | 38.85034 | -77.21850 | 1049 ft | 77 kts | 180° |
| 2026-05-06 23:18 | 38.84512 | -77.21862 | 1144 ft | 77 kts | 181° |
| 2026-05-06 23:18 | 38.83924 | -77.21869 | 1113 ft | 91 kts | 182° |
| 2026-05-06 23:18 | 38.83248 | -77.21955 | 920 ft | 102 kts | 190° |
| 2026-05-06 23:18 | 38.82550 | -77.22152 | 803 ft | 103 kts | 191° |
| 2026-05-06 23:19 | 38.81821 | -77.22352 | 657 ft | 109 kts | 190° |
| 2026-05-06 23:19 | 38.81095 | -77.22566 | 636 ft | 103 kts | 189° |
| 2026-05-06 23:19 | 38.80442 | -77.22776 | 731 ft | 89 kts | 190° |
| 2026-05-06 23:19 | 38.79911 | -77.22960 | 908 ft | 73 kts | 190° |
| 2026-05-06 23:20 | 38.79383 | -77.23122 | 873 ft | 86 kts | 189° |
| 2026-05-06 23:20 | 38.78749 | -77.23309 | 786 ft | 99 kts | 189° |
| 2026-05-06 23:20 | 38.78061 | -77.23574 | 698 ft | 106 kts | 192° |
| 2026-05-06 23:20 | 38.77347 | -77.23837 | 647 ft | 106 kts | 190° |
| 2026-05-06 23:21 | 38.76646 | -77.24077 | 642 ft | 104 kts | 189° |
| 2026-05-06 23:21 | 38.75908 | -77.24313 | 506 ft | 113 kts | 188° |
| 2026-05-06 23:21 | 38.75160 | -77.24539 | 516 ft | 106 kts | 188° |
| 2026-05-06 23:21 | 38.74487 | -77.24742 | 604 ft | 96 kts | 189° |
| 2026-05-06 23:22 | 38.74067 | -77.24899 | 617 ft | 95 kts | 191° |
| 2026-05-06 23:22 | 38.73443 | -77.25163 | 633 ft | 95 kts | 193° |
| 2026-05-06 23:22 | 38.72815 | -77.25435 | 633 ft | 95 kts | 192° |
| 2026-05-06 23:22 | 38.72169 | -77.25651 | 640 ft | 96 kts | 187° |
| 2026-05-06 23:23 | 38.71530 | -77.25844 | 682 ft | 93 kts | 188° |
| 2026-05-06 23:23 | 38.70906 | -77.26045 | 748 ft | 91 kts | 189° |
| 2026-05-06 23:23 | 38.70282 | -77.26235 | 756 ft | 97 kts | 188° |
| 2026-05-06 23:23 | 38.69550 | -77.26450 | 518 ft | 118 kts | 188° |
| 2026-05-06 23:24 | 38.68720 | -77.26607 | 371 ft | 122 kts | 182° |
| 2026-05-06 23:24 | 38.67928 | -77.26788 | 423 ft | 106 kts | 187° |
| 2026-05-06 23:24 | 38.67279 | -77.26998 | 562 ft | 92 kts | 188° |
| 2026-05-06 23:24 | 38.66651 | -77.27277 | 476 ft | 103 kts | 197° |
| 2026-05-06 23:25 | 38.65978 | -77.27630 | 415 ft | 102 kts | 200° |
| 2026-05-06 23:25 | 38.65380 | -77.28061 | 461 ft | 97 kts | 203° |
| 2026-05-06 23:25 | 38.64768 | -77.28447 | 434 ft | 101 kts | 198° |
| 2026-05-06 23:25 | 38.64084 | -77.28767 | 334 ft | 105 kts | 194° |
| 2026-05-06 23:26 | 38.63401 | -77.29038 | 324 ft | 104 kts | 193° |
| 2026-05-06 23:26 | 38.62807 | -77.29331 | 401 ft | 28 kts | 123° |
| 2026-05-06 23:26 | 38.62696 | -77.29390 | 357 ft | 46 kts | 166° |
| 2026-05-06 23:26 | 38.62543 | -77.29651 | 515 ft | 13 kts | 199° |
| 2026-05-06 23:27 | 38.62378 | -77.29737 | 539 ft | 55 kts | 184° |
| 2026-05-06 23:27 | 38.62004 | -77.29927 | 403 ft | 51 kts | 182° |
| 2026-05-06 23:27 | 38.61641 | -77.30063 | 826 ft | 51 kts | 181° |
| 2026-05-06 23:27 | 38.61276 | -77.30130 | 827 ft | 62 kts | 178° |
| 2026-05-06 23:28 | 38.60842 | -77.30146 | 683 ft | 67 kts | 190° |
| 2026-05-06 23:28 | 38.60431 | -77.30221 | 474 ft | 49 kts | 180° |
| 2026-05-06 23:28 | 38.60171 | -77.30299 | 349 ft | 39 kts | 182° |
| 2026-05-06 23:28 | 38.59769 | -77.30350 | 482 ft | 77 kts | 175° |
| 2026-05-06 23:29 | 38.59178 | -77.30341 | 557 ft | 88 kts | 179° |
| 2026-05-06 23:29 | 38.58664 | -77.30393 | 744 ft | 66 kts | 183° |
| 2026-05-06 23:29 | 38.58224 | -77.30482 | 624 ft | 57 kts | 182° |
| 2026-05-06 23:29 | 38.57796 | -77.30619 | 610 ft | 73 kts | 185° |
| 2026-05-06 23:30 | 38.57252 | -77.30662 | 548 ft | 83 kts | 177° |
| 2026-05-06 23:30 | 38.56605 | -77.30729 | 459 ft | 101 kts | 185° |
| 2026-05-06 23:30 | 38.55944 | -77.30780 | 551 ft | 92 kts | 171° |
| 2026-05-06 23:30 | 38.55262 | -77.30821 | 461 ft | 92 kts | 183° |
| 2026-05-06 23:31 | 38.54670 | -77.30907 | 616 ft | 81 kts | 182° |
| 2026-05-06 23:31 | 38.54126 | -77.30873 | 616 ft | 80 kts | 177° |
| 2026-05-06 23:31 | 38.53581 | -77.30921 | 580 ft | 78 kts | 175° |
| 2026-05-06 23:31 | 38.52991 | -77.30882 | 490 ft | 90 kts | 173° |
| 2026-05-06 23:32 | 38.52379 | -77.30752 | 460 ft | 91 kts | 165° |
| 2026-05-06 23:32 | 38.51774 | -77.30577 | 306 ft | 74 kts | 172° |
| 2026-05-06 23:32 | 38.51493 | -77.30561 | 169 ft | 21 kts | 173° |
| 2026-05-06 23:32 | 38.51336 | -77.30551 | 163 ft | 21 kts | 169° |
| 2026-05-06 23:33 | 38.51218 | -77.30504 | 188 ft | 14 kts | 166° |
| 2026-05-06 23:33 | 38.51114 | -77.30480 | 165 ft | 26 kts | 162° |
| 2026-05-06 23:33 | 38.50901 | -77.30430 | 43 ft | 23 kts | 186° |
| 2026-05-06 23:33 | 38.50828 | -77.30498 | 54 ft | 12 kts | 184° |
| 2026-05-06 23:34 | 38.50764 | -77.30533 | 35 ft | 2 kts | 179° |
| 2026-05-06 23:34 | 38.50696 | -77.30582 | 39 ft | 21 kts | 176° |
| 2026-05-06 23:34 | 38.50548 | -77.30658 | 22 ft | 18 kts | 178° |
| 2026-05-06 23:34 | 38.50494 | -77.30670 | 15 ft | 3 kts | 193° |
| 2026-05-06 23:35 | 38.50486 | -77.30673 | 15 ft | 2 kts | 193° |
| 2026-05-06 23:35 | 38.50452 | -77.30681 | 15 ft | 7 kts | 194° |
| 2026-05-06 23:35 | 38.50411 | -77.30694 | 15 ft | 5 kts | 192° |
| 2026-05-06 23:35 | 38.50384 | -77.30702 | 15 ft | 3 kts | 210° |
| 2026-05-06 23:36 | 38.50378 | -77.30715 | 15 ft | 0 kts | 257° |
| 2026-05-06 23:36 | 38.50378 | -77.30728 | 15 ft | 3 kts | 280° |
| 2026-05-06 23:36 | 38.50380 | -77.30734 | 15 ft | 0 kts | 284° |
| 2026-05-06 23:37 | 38.50381 | -77.30740 | 15 ft | 0 kts | 281° |